sensor_id;sensor_type;location;lat;lon;timestamp;pressure;altitude;pressure_sealevel;temperature;humidity
3142;BME280;1581;51.568;6.998;2022-09-01T00:16:26;101392.28;;;20.32;56.70
3142;BME280;1581;51.568;6.998;2022-09-01T00:24:43;101390.13;;;20.23;57.35
3142;BME280;1581;51.568;6.998;2022-09-01T00:42:41;101392.28;;;20.32;57.62
3142;BME280;1581;51.568;6.998;2022-09-01T00:46:27;101383.22;;;20.27;58.25
3142;BME280;1581;51.568;6.998;2022-09-01T00:53:09;101372.63;;;20.25;58.94
3142;BME280;1581;51.568;6.998;2022-09-01T00:55:47;101377.31;;;20.18;59.09
3142;BME280;1581;51.568;6.998;2022-09-01T01:03:32;101370.63;;;20.21;59.13
3142;BME280;1581;51.568;6.998;2022-09-01T01:05:23;101373.19;;;20.16;59.06
3142;BME280;1581;51.568;6.998;2022-09-01T01:08:33;101370.63;;;20.21;58.75
3142;BME280;1581;51.568;6.998;2022-09-01T01:11:19;101362.50;;;20.09;59.57
3142;BME280;1581;51.568;6.998;2022-09-01T01:14:13;101368.84;;;20.03;59.74
3142;BME280;1581;51.568;6.998;2022-09-01T01:18:12;101365.56;;;20.01;60.10
3142;BME280;1581;51.568;6.998;2022-09-01T01:21:25;101363.38;;;19.92;60.76
3142;BME280;1581;51.568;6.998;2022-09-01T01:24:25;101372.88;;;20.01;60.55
3142;BME280;1581;51.568;6.998;2022-09-01T01:27:29;101377.75;;;19.92;61.33
3142;BME280;1581;51.568;6.998;2022-09-01T01:59:52;101399.00;;;19.37;64.03
3142;BME280;1581;51.568;6.998;2022-09-01T02:02:21;101401.63;;;19.43;63.23
3142;BME280;1581;51.568;6.998;2022-09-01T02:04:48;101396.31;;;19.37;64.29
3142;BME280;1581;51.568;6.998;2022-09-01T02:07:16;101402.63;;;19.31;63.80
3142;BME280;1581;51.568;6.998;2022-09-01T02:09:44;101400.97;;;19.30;64.08
3142;BME280;1581;51.568;6.998;2022-09-01T02:12:13;101404.63;;;19.24;64.40
3142;BME280;1581;51.568;6.998;2022-09-01T02:14:44;101400.50;;;19.21;64.37
3142;BME280;1581;51.568;6.998;2022-09-01T02:17:14;101391.88;;;19.13;65.27
3142;BME280;1581;51.568;6.998;2022-09-01T02:19:42;101401.16;;;19.17;64.69
3142;BME280;1581;51.568;6.998;2022-09-01T02:22:09;101401.84;;;19.12;65.12
3142;BME280;1581;51.568;6.998;2022-09-01T02:24:37;101402.81;;;19.00;65.80
3142;BME280;1581;51.568;6.998;2022-09-01T02:27:11;101391.13;;;19.06;65.81
3142;BME280;1581;51.568;6.998;2022-09-01T02:29:40;101396.28;;;19.07;65.72
3142;BME280;1581;51.568;6.998;2022-09-01T02:32:07;101393.56;;;19.07;65.50
3142;BME280;1581;51.568;6.998;2022-09-01T02:34:38;101396.59;;;19.00;66.36
3142;BME280;1581;51.568;6.998;2022-09-01T02:37:05;101392.47;;;19.15;65.48
3142;BME280;1581;51.568;6.998;2022-09-01T02:39:33;101386.22;;;19.14;64.83
3142;BME280;1581;51.568;6.998;2022-09-01T02:42:01;101388.41;;;19.06;65.34
3142;BME280;1581;51.568;6.998;2022-09-01T02:44:29;101391.63;;;18.97;66.28
3142;BME280;1581;51.568;6.998;2022-09-01T02:46:57;101390.00;;;18.96;65.94
3142;BME280;1581;51.568;6.998;2022-09-01T02:49:26;101382.72;;;18.96;66.30
3142;BME280;1581;51.568;6.998;2022-09-01T02:51:58;101386.38;;;19.01;66.11
3142;BME280;1581;51.568;6.998;2022-09-01T02:54:28;101390.91;;;18.90;67.17
3142;BME280;1581;51.568;6.998;2022-09-01T02:56:56;101387.97;;;18.91;67.05
3142;BME280;1581;51.568;6.998;2022-09-01T02:59:26;101386.56;;;18.89;67.60
3142;BME280;1581;51.568;6.998;2022-09-01T03:01:54;101386.88;;;18.81;67.66
3142;BME280;1581;51.568;6.998;2022-09-01T03:04:23;101385.28;;;18.73;68.67
3142;BME280;1581;51.568;6.998;2022-09-01T03:06:52;101382.28;;;18.81;68.43
3142;BME280;1581;51.568;6.998;2022-09-01T03:09:21;101386.56;;;18.89;67.95
3142;BME280;1581;51.568;6.998;2022-09-01T03:11:51;101386.19;;;18.85;68.43
3142;BME280;1581;51.568;6.998;2022-09-01T03:14:21;101388.50;;;18.82;68.60
3142;BME280;1581;51.568;6.998;2022-09-01T03:16:49;101393.16;;;18.75;69.80
3142;BME280;1581;51.568;6.998;2022-09-01T03:19:17;101394.66;;;18.71;69.32
3142;BME280;1581;51.568;6.998;2022-09-01T03:21:45;101402.78;;;18.71;69.43
3142;BME280;1581;51.568;6.998;2022-09-01T03:24:16;101401.94;;;18.70;69.67
3142;BME280;1581;51.568;6.998;2022-09-01T03:26:46;101402.16;;;18.69;69.47
3142;BME280;1581;51.568;6.998;2022-09-01T03:29:14;101395.78;;;18.63;69.64
3142;BME280;1581;51.568;6.998;2022-09-01T03:31:42;101400.94;;;18.65;69.54
3142;BME280;1581;51.568;6.998;2022-09-01T03:34:10;101392.34;;;18.56;70.74
3142;BME280;1581;51.568;6.998;2022-09-01T03:36:37;101396.91;;;18.56;70.79
3142;BME280;1581;51.568;6.998;2022-09-01T03:39:15;101395.41;;;18.60;70.37
3142;BME280;1581;51.568;6.998;2022-09-01T03:41:45;101401.56;;;18.49;71.21
3142;BME280;1581;51.568;6.998;2022-09-01T03:44:13;101398.78;;;18.55;71.44
3142;BME280;1581;51.568;6.998;2022-09-01T03:46:41;101396.28;;;18.36;73.00
3142;BME280;1581;51.568;6.998;2022-09-01T03:49:10;101397.81;;;18.50;72.08
3142;BME280;1581;51.568;6.998;2022-09-01T03:51:41;101392.25;;;18.45;72.18
3142;BME280;1581;51.568;6.998;2022-09-01T03:54:10;101395.84;;;18.39;72.56
3142;BME280;1581;51.568;6.998;2022-09-01T03:56:38;101385.34;;;18.31;73.09
3142;BME280;1581;51.568;6.998;2022-09-01T03:59:09;101383.63;;;18.36;72.85
3142;BME280;1581;51.568;6.998;2022-09-01T04:01:43;101388.81;;;18.38;72.25
3142;BME280;1581;51.568;6.998;2022-09-01T04:04:13;101386.78;;;18.33;72.27
3142;BME280;1581;51.568;6.998;2022-09-01T04:06:45;101383.31;;;18.26;72.38
3142;BME280;1581;51.568;6.998;2022-09-01T04:09:14;101387.31;;;18.17;73.13
3142;BME280;1581;51.568;6.998;2022-09-01T04:11:42;101378.84;;;18.14;73.61
3142;BME280;1581;51.568;6.998;2022-09-01T04:14:17;101381.00;;;18.06;73.81
3142;BME280;1581;51.568;6.998;2022-09-01T04:16:46;101383.03;;;18.10;73.69
3142;BME280;1581;51.568;6.998;2022-09-01T04:19:36;101390.75;;;18.07;74.26
3142;BME280;1581;51.568;6.998;2022-09-01T04:22:05;101377.78;;;18.15;73.59
3142;BME280;1581;51.568;6.998;2022-09-01T04:24:39;101376.03;;;18.03;73.99
3142;BME280;1581;51.568;6.998;2022-09-01T04:27:14;101379.56;;;18.03;73.95
3142;BME280;1581;51.568;6.998;2022-09-01T04:29:46;101384.63;;;17.93;74.65
3142;BME280;1581;51.568;6.998;2022-09-01T04:32:15;101387.84;;;17.84;75.88
3142;BME280;1581;51.568;6.998;2022-09-01T04:34:46;101383.88;;;17.86;75.78
3142;BME280;1581;51.568;6.998;2022-09-01T04:37:17;101380.13;;;17.87;75.52
3142;BME280;1581;51.568;6.998;2022-09-01T04:39:50;101383.19;;;17.91;75.08
3142;BME280;1581;51.568;6.998;2022-09-01T04:42:18;101384.47;;;17.88;75.08
3142;BME280;1581;51.568;6.998;2022-09-01T04:44:50;101378.25;;;17.88;74.99
3142;BME280;1581;51.568;6.998;2022-09-01T04:47:19;101389.03;;;17.88;75.14
3142;BME280;1581;51.568;6.998;2022-09-01T04:49:55;101388.22;;;17.87;75.38
3142;BME280;1581;51.568;6.998;2022-09-01T04:52:25;101384.94;;;17.79;75.87
3142;BME280;1581;51.568;6.998;2022-09-01T04:54:57;101389.59;;;17.96;74.81
3142;BME280;1581;51.568;6.998;2022-09-01T04:57:24;101396.72;;;17.84;75.49
3142;BME280;1581;51.568;6.998;2022-09-01T04:59:56;101383.63;;;17.88;75.46
3142;BME280;1581;51.568;6.998;2022-09-01T05:02:24;101395.53;;;17.80;75.92
3142;BME280;1581;51.568;6.998;2022-09-01T05:04:54;101388.91;;;17.76;76.03
3142;BME280;1581;51.568;6.998;2022-09-01T05:07:26;101395.34;;;17.75;76.07
3142;BME280;1581;51.568;6.998;2022-09-01T05:09:55;101393.66;;;17.81;75.85
3142;BME280;1581;51.568;6.998;2022-09-01T05:12:22;101393.94;;;17.73;75.86
3142;BME280;1581;51.568;6.998;2022-09-01T05:14:53;101391.88;;;17.68;76.23
3142;BME280;1581;51.568;6.998;2022-09-01T05:17:25;101397.63;;;17.78;75.79
3142;BME280;1581;51.568;6.998;2022-09-01T05:19:57;101391.38;;;17.78;76.09
3142;BME280;1581;51.568;6.998;2022-09-01T05:22:28;101395.53;;;17.80;76.30
3142;BME280;1581;51.568;6.998;2022-09-01T05:25:08;101397.78;;;17.83;76.45
3142;BME280;1581;51.568;6.998;2022-09-01T05:27:41;101393.56;;;17.69;77.71
3142;BME280;1581;51.568;6.998;2022-09-01T05:30:18;101397.81;;;17.77;77.57
3142;BME280;1581;51.568;6.998;2022-09-01T05:32:53;101401.31;;;17.84;77.12
3142;BME280;1581;51.568;6.998;2022-09-01T05:35:22;101401.41;;;17.95;76.40
3142;BME280;1581;51.568;6.998;2022-09-01T05:37:53;101400.09;;;18.04;75.69
3142;BME280;1581;51.568;6.998;2022-09-01T05:40:23;101402.13;;;18.09;75.61
3142;BME280;1581;51.568;6.998;2022-09-01T05:42:51;101404.00;;;18.08;75.42
3142;BME280;1581;51.568;6.998;2022-09-01T05:45:23;101404.75;;;18.15;75.73
3142;BME280;1581;51.568;6.998;2022-09-01T05:47:53;101403.09;;;18.14;75.74
3142;BME280;1581;51.568;6.998;2022-09-01T05:50:27;101403.50;;;18.17;75.64
3142;BME280;1581;51.568;6.998;2022-09-01T05:53:02;101402.59;;;18.30;74.80
3142;BME280;1581;51.568;6.998;2022-09-01T05:55:47;101397.19;;;18.30;75.35
3142;BME280;1581;51.568;6.998;2022-09-01T05:58:27;101404.25;;;18.49;74.29
3142;BME280;1581;51.568;6.998;2022-09-01T06:00:56;101406.22;;;18.60;73.89
3142;BME280;1581;51.568;6.998;2022-09-01T06:03:26;101408.00;;;18.66;73.59
3142;BME280;1581;51.568;6.998;2022-09-01T06:06:00;101406.59;;;18.63;74.16
3142;BME280;1581;51.568;6.998;2022-09-01T06:08:28;101405.47;;;18.71;73.57
3142;BME280;1581;51.568;6.998;2022-09-01T06:10:58;101414.56;;;18.76;73.13
3142;BME280;1581;51.568;6.998;2022-09-01T06:13:26;101411.63;;;18.78;73.18
3142;BME280;1581;51.568;6.998;2022-09-01T06:15:55;101409.97;;;18.77;73.75
3142;BME280;1581;51.568;6.998;2022-09-01T06:18:28;101412.34;;;18.85;72.86
3142;BME280;1581;51.568;6.998;2022-09-01T06:21:02;101415.97;;;18.79;73.43
3142;BME280;1581;51.568;6.998;2022-09-01T06:23:33;101416.47;;;18.87;72.93
3142;BME280;1581;51.568;6.998;2022-09-01T06:26:04;101415.94;;;18.97;71.99
3142;BME280;1581;51.568;6.998;2022-09-01T06:28:33;101412.03;;;18.93;71.72
3142;BME280;1581;51.568;6.998;2022-09-01T06:31:06;101418.13;;;18.88;72.76
3142;BME280;1581;51.568;6.998;2022-09-01T06:33:36;101414.25;;;18.84;73.42
3142;BME280;1581;51.568;6.998;2022-09-01T06:36:05;101429.47;;;18.97;72.11
3142;BME280;1581;51.568;6.998;2022-09-01T06:38:37;101424.97;;;18.91;72.21
3142;BME280;1581;51.568;6.998;2022-09-01T06:41:05;101428.66;;;18.96;72.02
3142;BME280;1581;51.568;6.998;2022-09-01T06:43:38;101430.88;;;18.99;72.28
3142;BME280;1581;51.568;6.998;2022-09-01T06:46:07;101435.09;;;18.95;72.42
3142;BME280;1581;51.568;6.998;2022-09-01T06:48:37;101430.00;;;19.05;72.38
3142;BME280;1581;51.568;6.998;2022-09-01T06:51:13;101429.50;;;19.08;72.44
3142;BME280;1581;51.568;6.998;2022-09-01T06:53:42;101436.06;;;19.18;72.24
3142;BME280;1581;51.568;6.998;2022-09-01T06:56:11;101431.72;;;19.17;72.57
3142;BME280;1581;51.568;6.998;2022-09-01T06:58:44;101431.16;;;19.27;70.85
3142;BME280;1581;51.568;6.998;2022-09-01T07:01:14;101431.06;;;19.33;71.65
3142;BME280;1581;51.568;6.998;2022-09-01T07:03:50;101423.56;;;19.35;70.79
3142;BME280;1581;51.568;6.998;2022-09-01T07:06:19;101430.09;;;19.46;70.74
3142;BME280;1581;51.568;6.998;2022-09-01T07:08:52;101427.97;;;19.48;71.12
3142;BME280;1581;51.568;6.998;2022-09-01T07:11:24;101426.81;;;19.55;69.98
3142;BME280;1581;51.568;6.998;2022-09-01T07:13:54;101433.19;;;19.61;69.64
3142;BME280;1581;51.568;6.998;2022-09-01T07:16:24;101438.16;;;19.64;69.43
3142;BME280;1581;51.568;6.998;2022-09-01T07:18:56;101429.44;;;19.73;68.93
3142;BME280;1581;51.568;6.998;2022-09-01T07:21:27;101434.16;;;19.66;68.38
3142;BME280;1581;51.568;6.998;2022-09-01T07:23:57;101427.09;;;19.77;68.67
3142;BME280;1581;51.568;6.998;2022-09-01T07:26:27;101434.41;;;19.88;68.21
3142;BME280;1581;51.568;6.998;2022-09-01T07:28:56;101436.84;;;19.95;68.03
3142;BME280;1581;51.568;6.998;2022-09-01T07:31:27;101425.31;;;20.00;67.08
3142;BME280;1581;51.568;6.998;2022-09-01T07:34:02;101420.63;;;20.07;67.78
3142;BME280;1581;51.568;6.998;2022-09-01T07:36:31;101430.50;;;20.13;67.67
3142;BME280;1581;51.568;6.998;2022-09-01T07:38:59;101421.09;;;20.27;66.21
3142;BME280;1581;51.568;6.998;2022-09-01T07:41:30;101429.09;;;20.22;65.40
3142;BME280;1581;51.568;6.998;2022-09-01T07:44:01;101423.81;;;20.27;65.25
3142;BME280;1581;51.568;6.998;2022-09-01T07:46:33;101421.34;;;20.37;65.06
3142;BME280;1581;51.568;6.998;2022-09-01T07:49:06;101421.44;;;20.42;64.64
3142;BME280;1581;51.568;6.998;2022-09-01T07:51:34;101423.09;;;20.43;63.82
3142;BME280;1581;51.568;6.998;2022-09-01T07:54:02;101427.59;;;20.49;63.64
3142;BME280;1581;51.568;6.998;2022-09-01T07:56:30;101422.72;;;20.62;64.07
3142;BME280;1581;51.568;6.998;2022-09-01T07:59:02;101424.03;;;20.71;63.15
3142;BME280;1581;51.568;6.998;2022-09-01T08:01:31;101420.00;;;20.74;63.64
3142;BME280;1581;51.568;6.998;2022-09-01T08:04:00;101432.28;;;20.87;62.90
3142;BME280;1581;51.568;6.998;2022-09-01T08:06:30;101428.63;;;20.82;62.67
3142;BME280;1581;51.568;6.998;2022-09-01T08:08:58;101428.81;;;21.03;62.31
3142;BME280;1581;51.568;6.998;2022-09-01T08:11:36;101426.44;;;21.07;61.68
3142;BME280;1581;51.568;6.998;2022-09-01T08:14:07;101434.53;;;21.18;61.72
3142;BME280;1581;51.568;6.998;2022-09-01T08:16:35;101434.53;;;21.18;60.90
3142;BME280;1581;51.568;6.998;2022-09-01T08:19:03;101435.22;;;21.25;61.17
3142;BME280;1581;51.568;6.998;2022-09-01T08:21:35;101435.88;;;21.32;60.25
3142;BME280;1581;51.568;6.998;2022-09-01T08:24:05;101439.53;;;21.38;59.53
3142;BME280;1581;51.568;6.998;2022-09-01T08:26:36;101441.50;;;21.42;59.18
3142;BME280;1581;51.568;6.998;2022-09-01T08:29:03;101448.19;;;21.51;59.99
3142;BME280;1581;51.568;6.998;2022-09-01T08:31:33;101444.88;;;21.61;59.08
3142;BME280;1581;51.568;6.998;2022-09-01T08:34:04;101448.03;;;21.69;58.04
3142;BME280;1581;51.568;6.998;2022-09-01T08:36:35;101439.66;;;21.70;56.82
3142;BME280;1581;51.568;6.998;2022-09-01T08:39:05;101444.94;;;21.77;56.22
3142;BME280;1581;51.568;6.998;2022-09-01T08:41:46;101438.59;;;21.88;55.42
3142;BME280;1581;51.568;6.998;2022-09-01T08:44:31;101437.13;;;21.97;55.89
3142;BME280;1581;51.568;6.998;2022-09-01T08:47:09;101435.41;;;22.07;54.85
3142;BME280;1581;51.568;6.998;2022-09-01T08:49:39;101430.22;;;22.06;55.14
3142;BME280;1581;51.568;6.998;2022-09-01T08:52:21;101435.75;;;22.11;55.34
3142;BME280;1581;51.568;6.998;2022-09-01T08:54:58;101433.84;;;22.28;55.60
3142;BME280;1581;51.568;6.998;2022-09-01T08:57:35;101436.91;;;22.31;55.23
3142;BME280;1581;51.568;6.998;2022-09-01T09:00:06;101431.22;;;22.33;53.87
3142;BME280;1581;51.568;6.998;2022-09-01T09:02:56;101434.03;;;22.38;54.19
3142;BME280;1581;51.568;6.998;2022-09-01T09:05:42;101423.06;;;22.49;53.93
3142;BME280;1581;51.568;6.998;2022-09-01T09:08:52;101420.66;;;22.53;52.04
3142;BME280;1581;51.568;6.998;2022-09-01T09:14:54;101423.97;;;22.76;51.82
3142;BME280;1581;51.568;6.998;2022-09-01T09:17:31;101424.09;;;22.86;50.45
3142;BME280;1581;51.568;6.998;2022-09-01T09:20:01;101428.06;;;22.95;49.65
3142;BME280;1581;51.568;6.998;2022-09-01T09:22:30;101422.34;;;22.96;49.39
3142;BME280;1581;51.568;6.998;2022-09-01T09:25:06;101418.47;;;22.92;49.26
3142;BME280;1581;51.568;6.998;2022-09-01T09:27:36;101413.28;;;23.07;49.16
3142;BME280;1581;51.568;6.998;2022-09-01T09:30:08;101420.19;;;23.15;49.52
3142;BME280;1581;51.568;6.998;2022-09-01T09:32:47;101407.66;;;23.14;48.99
3142;BME280;1581;51.568;6.998;2022-09-01T09:35:28;101407.69;;;23.19;48.73
3142;BME280;1581;51.568;6.998;2022-09-01T09:38:16;101406.84;;;23.40;48.86
3142;BME280;1581;51.568;6.998;2022-09-01T09:41:04;101397.41;;;23.47;48.25
3142;BME280;1581;51.568;6.998;2022-09-01T09:43:36;101406.19;;;23.54;47.42
3142;BME280;1581;51.568;6.998;2022-09-01T09:46:27;101396.66;;;23.56;46.11
3142;BME280;1581;51.568;6.998;2022-09-01T09:49:17;101407.97;;;23.70;45.70
3142;BME280;1581;51.568;6.998;2022-09-01T09:51:57;101398.88;;;23.86;46.22
3142;BME280;1581;51.568;6.998;2022-09-01T09:54:56;101396.75;;;23.93;45.66
3142;BME280;1581;51.568;6.998;2022-09-01T09:57:26;101387.78;;;23.92;44.63
3142;BME280;1581;51.568;6.998;2022-09-01T10:00:07;101386.50;;;24.05;44.75
3142;BME280;1581;51.568;6.998;2022-09-01T10:02:43;101384.66;;;24.10;44.15
3142;BME280;1581;51.568;6.998;2022-09-01T10:05:34;101378.53;;;24.30;44.17
3142;BME280;1581;51.568;6.998;2022-09-01T10:08:07;101380.78;;;24.42;44.07
3142;BME280;1581;51.568;6.998;2022-09-01T10:10:41;101373.69;;;24.41;44.92
3142;BME280;1581;51.568;6.998;2022-09-01T10:13:15;101372.75;;;24.62;44.29
3142;BME280;1581;51.568;6.998;2022-09-01T10:15:48;101361.34;;;24.70;43.71
3142;BME280;1581;51.568;6.998;2022-09-01T10:18:19;101370.31;;;24.66;42.66
3142;BME280;1581;51.568;6.998;2022-09-01T10:20:55;101367.34;;;24.72;43.58
3142;BME280;1581;51.568;6.998;2022-09-01T10:23:25;101361.94;;;24.82;43.43
3142;BME280;1581;51.568;6.998;2022-09-01T10:25:59;101367.69;;;24.96;43.42
3142;BME280;1581;51.568;6.998;2022-09-01T10:28:32;101371.63;;;25.15;43.13
3142;BME280;1581;51.568;6.998;2022-09-01T10:31:03;101373.00;;;25.22;41.93
3142;BME280;1581;51.568;6.998;2022-09-01T10:33:33;101367.31;;;25.33;41.41
3142;BME280;1581;51.568;6.998;2022-09-01T10:36:01;101370.88;;;25.49;41.55
3142;BME280;1581;51.568;6.998;2022-09-01T10:38:31;101367.31;;;25.48;39.94
3142;BME280;1581;51.568;6.998;2022-09-01T10:40:59;101365.44;;;25.64;39.55
3142;BME280;1581;51.568;6.998;2022-09-01T10:43:38;101360.50;;;25.56;39.60
3142;BME280;1581;51.568;6.998;2022-09-01T10:52:53;101361.09;;;25.98;39.99
3142;BME280;1581;51.568;6.998;2022-09-01T10:55:25;101351.22;;;26.12;40.70
3142;BME280;1581;51.568;6.998;2022-09-01T10:58:24;101351.22;;;26.21;39.29
3142;BME280;1581;51.568;6.998;2022-09-01T11:00:57;101356.69;;;26.21;40.29
3142;BME280;1581;51.568;6.998;2022-09-01T11:06:51;101344.09;;;26.45;39.57
3142;BME280;1581;51.568;6.998;2022-09-01T11:09:25;101347.88;;;26.54;38.88
3142;BME280;1581;51.568;6.998;2022-09-01T11:12:40;101345.16;;;26.54;38.73
3142;BME280;1581;51.568;6.998;2022-09-01T11:15:39;101350.03;;;26.67;39.30
3142;BME280;1581;51.568;6.998;2022-09-01T11:18:13;101347.75;;;26.89;39.30
3142;BME280;1581;51.568;6.998;2022-09-01T11:20:42;101341.94;;;26.96;38.01
3142;BME280;1581;51.568;6.998;2022-09-01T11:23:19;101335.66;;;27.00;37.94
3142;BME280;1581;51.568;6.998;2022-09-01T11:25:48;101339.19;;;27.10;38.74
3142;BME280;1581;51.568;6.998;2022-09-01T11:28:40;101334.50;;;27.16;37.57
3142;BME280;1581;51.568;6.998;2022-09-01T11:31:29;101348.34;;;27.29;38.24
3142;BME280;1581;51.568;6.998;2022-09-01T11:34:11;101329.31;;;27.14;37.66
3142;BME280;1581;51.568;6.998;2022-09-01T11:36:54;101331.22;;;27.14;38.47
3142;BME280;1581;51.568;6.998;2022-09-01T11:39:40;101336.03;;;27.32;38.08
3142;BME280;1581;51.568;6.998;2022-09-01T11:42:15;101333.00;;;27.33;38.32
3142;BME280;1581;51.568;6.998;2022-09-01T11:44:50;101335.72;;;27.38;38.07
3142;BME280;1581;51.568;6.998;2022-09-01T11:47:22;101321.09;;;27.53;38.76
3142;BME280;1581;51.568;6.998;2022-09-01T11:49:56;101320.75;;;27.59;38.88
3142;BME280;1581;51.568;6.998;2022-09-01T11:52:27;101324.22;;;27.75;38.35
3142;BME280;1581;51.568;6.998;2022-09-01T11:54:56;101315.78;;;27.66;37.47
3142;BME280;1581;51.568;6.998;2022-09-01T11:57:30;101323.06;;;27.81;37.37
3142;BME280;1581;51.568;6.998;2022-09-01T12:00:02;101320.81;;;27.88;37.59
3142;BME280;1581;51.568;6.998;2022-09-01T12:02:49;101322.09;;;27.67;37.57
3142;BME280;1581;51.568;6.998;2022-09-01T12:05:29;101314.84;;;27.81;37.47
3142;BME280;1581;51.568;6.998;2022-09-01T12:08:00;101306.25;;;27.59;37.20
3142;BME280;1581;51.568;6.998;2022-09-01T12:10:32;101314.41;;;27.30;38.05
3142;BME280;1581;51.568;6.998;2022-09-01T12:13:04;101306.59;;;27.14;38.67
3142;BME280;1581;51.568;6.998;2022-09-01T12:15:39;101304.03;;;27.27;38.14
3142;BME280;1581;51.568;6.998;2022-09-01T12:18:13;101306.84;;;27.51;38.31
3142;BME280;1581;51.568;6.998;2022-09-01T12:20:46;101301.88;;;27.58;38.50
3142;BME280;1581;51.568;6.998;2022-09-01T12:23:23;101286.09;;;27.78;38.42
3142;BME280;1581;51.568;6.998;2022-09-01T12:25:53;101292.22;;;27.98;38.40
3142;BME280;1581;51.568;6.998;2022-09-01T12:28:23;101296.66;;;28.18;38.08
3142;BME280;1581;51.568;6.998;2022-09-01T12:30:51;101297.91;;;28.30;37.34
3142;BME280;1581;51.568;6.998;2022-09-01T12:33:20;101290.16;;;28.37;36.78
3142;BME280;1581;51.568;6.998;2022-09-01T12:35:51;101289.41;;;28.55;35.77
3142;BME280;1581;51.568;6.998;2022-09-01T12:38:29;101284.91;;;28.41;35.76
3142;BME280;1581;51.568;6.998;2022-09-01T12:40:59;101275.81;;;28.45;36.16
3142;BME280;1581;51.568;6.998;2022-09-01T12:43:34;101283.34;;;28.58;35.99
3142;BME280;1581;51.568;6.998;2022-09-01T12:46:47;101288.19;;;28.61;35.03
3142;BME280;1581;51.568;6.998;2022-09-01T12:49:53;101282.59;;;28.71;35.67
3142;BME280;1581;51.568;6.998;2022-09-01T12:52:55;101275.41;;;28.75;35.13
3142;BME280;1581;51.568;6.998;2022-09-01T12:56:02;101277.53;;;28.83;35.34
3142;BME280;1581;51.568;6.998;2022-09-01T12:58:48;101272.78;;;28.88;36.25
3142;BME280;1581;51.568;6.998;2022-09-01T13:01:38;101274.03;;;28.96;36.26
3142;BME280;1581;51.568;6.998;2022-09-01T13:04:34;101267.28;;;28.47;35.38
3142;BME280;1581;51.568;6.998;2022-09-01T13:07:16;101261.25;;;28.26;35.65
3142;BME280;1581;51.568;6.998;2022-09-01T13:09:51;101257.50;;;28.41;35.97
3142;BME280;1581;51.568;6.998;2022-09-01T13:12:25;101260.03;;;28.56;35.96
3142;BME280;1581;51.568;6.998;2022-09-01T13:14:55;101261.59;;;28.62;35.67
3142;BME280;1581;51.568;6.998;2022-09-01T13:17:22;101256.88;;;28.67;35.34
3142;BME280;1581;51.568;6.998;2022-09-01T13:19:50;101263.22;;;28.86;35.66
3142;BME280;1581;51.568;6.998;2022-09-01T13:22:17;101253.78;;;28.92;35.00
3142;BME280;1581;51.568;6.998;2022-09-01T13:24:48;101251.03;;;28.92;34.63
3142;BME280;1581;51.568;6.998;2022-09-01T13:27:33;101255.94;;;28.95;34.21
3142;BME280;1581;51.568;6.998;2022-09-01T13:30:01;101255.22;;;29.08;33.92
3142;BME280;1581;51.568;6.998;2022-09-01T13:32:28;101250.47;;;29.13;34.25
3142;BME280;1581;51.568;6.998;2022-09-01T13:34:56;101237.97;;;29.21;34.75
3142;BME280;1581;51.568;6.998;2022-09-01T13:37:24;101239.59;;;29.22;33.10
3142;BME280;1581;51.568;6.998;2022-09-01T13:39:51;101238.94;;;29.30;33.69
3142;BME280;1581;51.568;6.998;2022-09-01T13:42:19;101232.78;;;29.38;33.88
3142;BME280;1581;51.568;6.998;2022-09-01T13:52:22;101234.72;;;29.51;33.06
3142;BME280;1581;51.568;6.998;2022-09-01T13:54:49;101233.72;;;29.47;32.53
3142;BME280;1581;51.568;6.998;2022-09-01T13:57:17;101235.97;;;29.58;32.94
3142;BME280;1581;51.568;6.998;2022-09-01T13:59:45;101224.41;;;29.61;32.71
3142;BME280;1581;51.568;6.998;2022-09-01T14:02:13;101226.56;;;29.77;32.46
3142;BME280;1581;51.568;6.998;2022-09-01T14:04:41;101220.44;;;29.80;32.10
3142;BME280;1581;51.568;6.998;2022-09-01T14:07:08;101232.78;;;29.70;31.50
3142;BME280;1581;51.568;6.998;2022-09-01T14:09:37;101219.03;;;29.83;31.57
3142;BME280;1581;51.568;6.998;2022-09-01T14:12:06;101217.50;;;29.90;31.57
3142;BME280;1581;51.568;6.998;2022-09-01T14:14:33;101216.88;;;29.67;32.16
3142;BME280;1581;51.568;6.998;2022-09-01T14:17:01;101216.91;;;29.80;31.33
3142;BME280;1581;51.568;6.998;2022-09-01T14:19:29;101216.22;;;30.01;30.54
3142;BME280;1581;51.568;6.998;2022-09-01T14:21:57;101214.91;;;30.12;31.62
3142;BME280;1581;51.568;6.998;2022-09-01T14:24:32;101216.13;;;30.20;30.55
3142;BME280;1581;51.568;6.998;2022-09-01T14:27:03;101213.03;;;30.35;30.06
3142;BME280;1581;51.568;6.998;2022-09-01T14:29:30;101207.72;;;30.65;30.07
3142;BME280;1581;51.568;6.998;2022-09-01T14:31:58;101213.75;;;31.02;30.58
3142;BME280;1581;51.568;6.998;2022-09-01T14:34:26;101199.44;;;31.14;30.69
3142;BME280;1581;51.568;6.998;2022-09-01T14:36:54;101198.63;;;31.13;30.46
3142;BME280;1581;51.568;6.998;2022-09-01T14:39:23;101202.06;;;31.19;29.66
3142;BME280;1581;51.568;6.998;2022-09-01T14:41:50;101195.66;;;31.32;29.76
3142;BME280;1581;51.568;6.998;2022-09-01T14:44:22;101206.94;;;31.22;28.81
3142;BME280;1581;51.568;6.998;2022-09-01T14:46:50;101205.69;;;31.28;29.02
3142;BME280;1581;51.568;6.998;2022-09-01T14:49:19;101204.44;;;30.76;29.59
3142;BME280;1581;51.568;6.998;2022-09-01T14:51:47;101206.00;;;30.91;29.57
3142;BME280;1581;51.568;6.998;2022-09-01T14:54:15;101203.84;;;31.01;28.80
3142;BME280;1581;51.568;6.998;2022-09-01T14:56:42;101194.75;;;31.14;29.18
3142;BME280;1581;51.568;6.998;2022-09-01T14:59:10;101194.72;;;31.36;29.18
3142;BME280;1581;51.568;6.998;2022-09-01T15:01:51;101187.81;;;31.47;28.99
3142;BME280;1581;51.568;6.998;2022-09-01T15:04:33;101183.00;;;31.83;29.54
3142;BME280;1581;51.568;6.998;2022-09-01T15:07:29;101181.31;;;32.04;31.23
3142;BME280;1581;51.568;6.998;2022-09-01T15:10:19;101181.53;;;32.24;29.48
3142;BME280;1581;51.568;6.998;2022-09-01T15:13:02;101187.09;;;32.41;27.71
3142;BME280;1581;51.568;6.998;2022-09-01T15:15:50;101183.03;;;32.55;28.39
3142;BME280;1581;51.568;6.998;2022-09-01T15:18:39;101187.59;;;32.51;27.43
3142;BME280;1581;51.568;6.998;2022-09-01T15:21:23;101178.06;;;32.74;27.58
3142;BME280;1581;51.568;6.998;2022-09-01T15:23:52;101186.81;;;32.59;27.24